Time;durP1;ratioP1;P1;durP2;ratioP2;P2;SDS_P1;SDS_P2;PMS_P1;PMS_P2;Temp;Humidity;BMP_temperature;BMP_pressure;BME280_temperature;BME280_humidity;BME280_pressure;Samples;Min_cycle;Max_cycle;Signal;HPM_P1;HPM_P2
2022/07/08 00:02:27;;;;;;;6.40;4.57;;;;;;;;;;5073192;28;20199;-78
2022/07/08 00:04:55;;;;;;;6.40;4.60;;;;;;;;;;5067579;28;20227;-78
2022/07/08 00:07:23;;;;;;;5.47;4.20;;;;;;;;;;5053940;28;20299;-78
2022/07/08 00:09:50;;;;;;;5.33;4.57;;;;;;;;;;5062662;28;20230;-77
2022/07/08 00:12:17;;;;;;;8.47;5.03;;;;;;;;;;5062528;28;20253;-78
2022/07/08 00:14:44;;;;;;;6.10;4.83;;;;;;;;;;5053781;28;20250;-78
2022/07/08 00:17:11;;;;;;;5.60;4.57;;;;;;;;;;5053655;28;20671;-78
2022/07/08 00:19:38;;;;;;;5.77;5.07;;;;;;;;;;5063187;28;20809;-78
2022/07/08 00:22:07;;;;;;;5.63;5.10;;;;;;;;;;5055004;28;20283;-77
2022/07/08 00:24:34;;;;;;;6.03;4.40;;;;;;;;;;5053579;28;20235;-77
2022/07/08 00:27:01;;;;;;;5.43;4.43;;;;;;;;;;5054484;28;20401;-77
2022/07/08 00:29:29;;;;;;;5.63;4.20;;;;;;;;;;5066102;28;20240;-78
2022/07/08 00:31:56;;;;;;;6.77;5.00;;;;;;;;;;5054258;28;20679;-77
2022/07/08 00:34:23;;;;;;;5.57;4.63;;;;;;;;;;5057114;28;20226;-78
2022/07/08 00:36:50;;;;;;;5.37;4.87;;;;;;;;;;5072670;28;20333;-77
2022/07/08 00:39:19;;;;;;;6.13;5.57;;;;;;;;;;5072996;28;20227;-77
2022/07/08 00:41:46;;;;;;;6.90;5.73;;;;;;;;;;5054132;28;20227;-77
2022/07/08 00:44:13;;;;;;;6.47;5.80;;;;;;;;;;5053527;28;20286;-77
2022/07/08 00:46:41;;;;;;;6.73;5.50;;;;;;;;;;5080649;28;20317;-78
2022/07/08 00:49:08;;;;;;;7.53;5.93;;;;;;;;;;5063403;28;20199;-77
2022/07/08 00:51:36;;;;;;;7.23;5.97;;;;;;;;;;5058981;28;20327;-77
2022/07/08 00:54:04;;;;;;;6.60;5.90;;;;;;;;;;5053091;28;20649;-77
2022/07/08 00:56:33;;;;;;;8.80;6.70;;;;;;;;;;5061562;28;20278;-77
2022/07/08 00:59:00;;;;;;;8.43;5.70;;;;;;;;;;5061863;28;20237;-77
2022/07/08 01:01:27;;;;;;;6.77;6.07;;;;;;;;;;5072966;28;20268;-77
2022/07/08 01:03:54;;;;;;;6.33;5.73;;;;;;;;;;5058715;28;20639;-77
2022/07/08 01:06:22;;;;;;;7.17;5.97;;;;;;;;;;5062036;28;20301;-77
2022/07/08 01:08:49;;;;;;;8.83;6.20;;;;;;;;;;5072966;28;20234;-78
2022/07/08 01:11:17;;;;;;;7.40;6.17;;;;;;;;;;5058855;28;20211;-78
2022/07/08 01:13:45;;;;;;;7.77;6.07;;;;;;;;;;5074387;28;20219;-78
2022/07/08 01:16:12;;;;;;;6.23;5.27;;;;;;;;;;5060303;28;20227;-77
2022/07/08 01:18:41;;;;;;;7.20;5.90;;;;;;;;;;5062110;28;20685;-78
2022/07/08 01:21:10;;;;;;;6.47;5.57;;;;;;;;;;5055630;28;20235;-77
2022/07/08 01:23:37;;;;;;;6.40;5.20;;;;;;;;;;5053919;28;20301;-78
2022/07/08 01:26:09;;;;;;;6.30;5.60;;;;;;;;;;5063899;28;20260;-78
2022/07/08 01:28:36;;;;;;;7.50;6.00;;;;;;;;;;5082459;28;20283;-77
2022/07/08 01:31:04;;;;;;;11.10;6.20;;;;;;;;;;5072038;28;20784;-77
2022/07/08 01:33:32;;;;;;;7.17;6.10;;;;;;;;;;5061013;28;20665;-77
2022/07/08 01:35:59;;;;;;;6.83;5.87;;;;;;;;;;5072690;28;20199;-77
2022/07/08 01:38:28;;;;;;;6.60;6.00;;;;;;;;;;5069294;28;20231;-77
2022/07/08 01:40:55;;;;;;;7.80;5.83;;;;;;;;;;5071243;28;20231;-78
2022/07/08 01:43:22;;;;;;;7.27;6.37;;;;;;;;;;5071234;28;20241;-77
2022/07/08 01:45:50;;;;;;;7.33;6.63;;;;;;;;;;5069359;28;20208;-77
2022/07/08 01:48:17;;;;;;;9.57;6.50;;;;;;;;;;5052498;28;20249;-78
2022/07/08 01:50:44;;;;;;;8.20;5.90;;;;;;;;;;5052286;28;20326;-78
2022/07/08 01:53:12;;;;;;;6.80;6.00;;;;;;;;;;5074090;28;20226;-78
2022/07/08 01:55:41;;;;;;;7.97;6.37;;;;;;;;;;5072727;28;20199;-78
2022/07/08 01:58:08;;;;;;;6.87;6.03;;;;;;;;;;5074286;28;20238;-77
2022/07/08 02:00:35;;;;;;;6.70;6.00;;;;;;;;;;5075906;28;20658;-77
2022/07/08 02:03:02;;;;;;;6.87;6.13;;;;;;;;;;5064967;28;20283;-77
2022/07/08 02:05:32;;;;;;;7.17;6.23;;;;;;;;;;5074844;28;20227;-77
2022/07/08 02:08:00;;;;;;;8.27;6.03;;;;;;;;;;5076287;28;20219;-77
2022/07/08 02:10:27;;;;;;;7.47;6.73;;;;;;;;;;5060586;28;20211;-78
2022/07/08 02:12:55;;;;;;;8.67;6.90;;;;;;;;;;5071311;28;20231;-77
2022/07/08 02:15:22;;;;;;;7.90;7.10;;;;;;;;;;5075921;28;20662;-77
2022/07/08 02:17:49;;;;;;;7.63;6.10;;;;;;;;;;5076128;28;20203;-77
2022/07/08 02:20:17;;;;;;;7.23;6.47;;;;;;;;;;5064228;28;20223;-77
2022/07/08 02:22:44;;;;;;;6.90;5.83;;;;;;;;;;5075221;28;20256;-77
2022/07/08 02:25:11;;;;;;;6.53;5.60;;;;;;;;;;5094400;28;20202;-77
2022/07/08 02:27:39;;;;;;;6.63;5.90;;;;;;;;;;5072935;28;20251;-77
2022/07/08 02:30:09;;;;;;;7.87;6.30;;;;;;;;;;5055727;28;20235;-77
2022/07/08 02:32:36;;;;;;;8.13;6.67;;;;;;;;;;5055773;28;20223;-77
2022/07/08 02:35:03;;;;;;;7.93;6.87;;;;;;;;;;5055308;28;20733;-78
2022/07/08 02:37:31;;;;;;;7.37;6.40;;;;;;;;;;5065584;28;20258;-77
2022/07/08 02:39:58;;;;;;;7.33;5.60;;;;;;;;;;5067893;28;20610;-77
2022/07/08 02:42:25;;;;;;;8.03;5.93;;;;;;;;;;5075945;28;20576;-77
2022/07/08 02:44:52;;;;;;;7.23;5.90;;;;;;;;;;5083136;28;20198;-77
2022/07/08 02:47:21;;;;;;;7.30;6.60;;;;;;;;;;5070401;28;20250;-77
2022/07/08 02:49:48;;;;;;;7.70;6.87;;;;;;;;;;5065402;28;20287;-77
2022/07/08 02:52:16;;;;;;;9.60;7.13;;;;;;;;;;5055419;28;20730;-77
2022/07/08 02:54:43;;;;;;;10.20;7.93;;;;;;;;;;5055067;28;20242;-77
2022/07/08 02:57:10;;;;;;;8.80;7.40;;;;;;;;;;5055619;28;20234;-78
2022/07/08 02:59:37;;;;;;;10.77;7.40;;;;;;;;;;5067146;28;20227;-78
2022/07/08 03:02:05;;;;;;;7.60;6.60;;;;;;;;;;5075393;28;20671;-77
2022/07/08 03:04:34;;;;;;;9.07;7.23;;;;;;;;;;5055288;28;20254;-77
2022/07/08 03:07:01;;;;;;;8.77;6.90;;;;;;;;;;5073239;28;20264;-77
2022/07/08 03:09:28;;;;;;;8.37;6.80;;;;;;;;;;5074272;28;20253;-77
2022/07/08 03:11:55;;;;;;;9.27;7.53;;;;;;;;;;5075229;28;20231;-77
2022/07/08 03:14:22;;;;;;;8.27;6.63;;;;;;;;;;5056787;28;20235;-77
2022/07/08 03:16:50;;;;;;;7.83;7.00;;;;;;;;;;5065217;28;20231;-77
2022/07/08 03:19:17;;;;;;;7.40;6.23;;;;;;;;;;5055035;28;20325;-77
2022/07/08 03:21:45;;;;;;;10.17;7.70;;;;;;;;;;5078061;28;20237;-77
2022/07/08 03:24:13;;;;;;;9.70;7.93;;;;;;;;;;5060774;28;20235;-77
2022/07/08 03:26:40;;;;;;;8.00;6.77;;;;;;;;;;5087700;28;20224;-77
2022/07/08 03:29:07;;;;;;;9.17;7.63;;;;;;;;;;5059934;28;20287;-77
2022/07/08 03:31:34;;;;;;;9.50;7.03;;;;;;;;;;5070049;28;20200;-77
2022/07/08 03:34:02;;;;;;;7.77;6.97;;;;;;;;;;5083055;28;20302;-77
2022/07/08 03:36:29;;;;;;;8.60;7.10;;;;;;;;;;5074936;28;20618;-77
2022/07/08 03:38:58;;;;;;;8.33;7.30;;;;;;;;;;5064500;28;20700;-77
2022/07/08 03:41:24;;;;;;;8.63;7.30;;;;;;;;;;5074052;28;20230;-77
2022/07/08 03:43:52;;;;;;;8.10;7.30;;;;;;;;;;5073773;28;20201;-77
2022/07/08 03:46:19;;;;;;;9.43;7.40;;;;;;;;;;5074252;28;20691;-77
2022/07/08 03:48:47;;;;;;;8.50;7.57;;;;;;;;;;5054677;28;20242;-77
2022/07/08 03:51:14;;;;;;;7.73;7.03;;;;;;;;;;5073671;28;20267;-77
2022/07/08 03:53:42;;;;;;;8.93;8.03;;;;;;;;;;5058774;28;20282;-77
2022/07/08 03:56:11;;;;;;;10.43;8.27;;;;;;;;;;5063809;28;20196;-77
2022/07/08 03:58:38;;;;;;;9.90;8.60;;;;;;;;;;5064845;28;20286;-77
2022/07/08 04:01:06;;;;;;;11.97;9.47;;;;;;;;;;5067106;28;20223;-77
2022/07/08 04:03:33;;;;;;;10.10;8.67;;;;;;;;;;5064211;28;20203;-77
2022/07/08 04:06:00;;;;;;;10.10;8.97;;;;;;;;;;5054045;28;20698;-77
2022/07/08 04:08:27;;;;;;;11.50;8.77;;;;;;;;;;5062804;28;20247;-77
2022/07/08 04:10:55;;;;;;;10.53;9.37;;;;;;;;;;5087710;28;20287;-77
2022/07/08 04:13:27;;;;;;;11.17;8.87;;;;;;;;;;5094003;28;20237;-77
2022/07/08 04:15:54;;;;;;;10.03;8.90;;;;;;;;;;5071967;28;20196;-77
2022/07/08 04:18:21;;;;;;;11.27;8.87;;;;;;;;;;5057281;28;20291;-77
2022/07/08 04:20:48;;;;;;;11.83;9.23;;;;;;;;;;5054389;28;20200;-77
2022/07/08 04:23:16;;;;;;;9.80;8.80;;;;;;;;;;5053370;28;20754;-77
2022/07/08 04:25:43;;;;;;;9.97;8.60;;;;;;;;;;5070109;28;20239;-77
2022/07/08 04:28:10;;;;;;;12.10;8.70;;;;;;;;;;5062270;28;20250;-77
2022/07/08 04:30:39;;;;;;;9.53;8.47;;;;;;;;;;5053878;28;20227;-77
2022/07/08 04:33:08;;;;;;;10.30;8.40;;;;;;;;;;5069181;28;20226;-77
2022/07/08 04:35:35;;;;;;;9.23;8.30;;;;;;;;;;5052918;28;20667;-77
2022/07/08 04:38:03;;;;;;;11.60;8.23;;;;;;;;;;5061800;28;20712;-77
2022/07/08 04:40:30;;;;;;;11.97;8.37;;;;;;;;;;5073491;28;20207;-77
2022/07/08 04:42:57;;;;;;;9.53;8.40;;;;;;;;;;5070427;28;20281;-77
2022/07/08 04:45:24;;;;;;;9.17;8.07;;;;;;;;;;5057693;28;20203;-77
2022/07/08 04:47:54;;;;;;;9.53;8.57;;;;;;;;;;5058336;28;20251;-77
2022/07/08 04:50:21;;;;;;;10.27;8.60;;;;;;;;;;5068731;28;20765;-77
2022/07/08 04:52:48;;;;;;;8.67;7.73;;;;;;;;;;5083435;28;20231;-77
2022/07/08 04:55:28;;;;;;;9.30;8.40;;;;;;;;;;5054836;28;20271;-77
2022/07/08 04:57:56;;;;;;;10.83;8.53;;;;;;;;;;5063033;28;20201;-76
2022/07/08 05:00:23;;;;;;;10.10;8.00;;;;;;;;;;5073590;28;20204;-77
2022/07/08 05:02:51;;;;;;;13.07;8.30;;;;;;;;;;5068635;28;20222;-77
2022/07/08 05:05:20;;;;;;;8.87;7.97;;;;;;;;;;5072017;28;20200;-77
2022/07/08 05:07:48;;;;;;;11.80;8.73;;;;;;;;;;5072886;28;20318;-77
2022/07/08 05:10:16;;;;;;;9.63;8.63;;;;;;;;;;5069422;28;20199;-77
2022/07/08 05:12:43;;;;;;;10.57;8.97;;;;;;;;;;5072853;28;20203;-77
2022/07/08 05:15:11;;;;;;;9.57;8.23;;;;;;;;;;5067709;28;20285;-76
2022/07/08 05:17:38;;;;;;;10.63;8.40;;;;;;;;;;5081316;28;20204;-77
2022/07/08 05:20:06;;;;;;;10.27;7.73;;;;;;;;;;5054980;28;20713;-77
2022/07/08 05:22:35;;;;;;;8.80;6.87;;;;;;;;;;5068514;28;20730;-76
2022/07/08 05:25:03;;;;;;;9.20;7.00;;;;;;;;;;5072710;28;20237;-77
2022/07/08 05:27:30;;;;;;;8.23;7.20;;;;;;;;;;5068054;28;20302;-77
2022/07/08 05:29:57;;;;;;;9.50;7.80;;;;;;;;;;5064668;28;20681;-76
2022/07/08 05:32:24;;;;;;;8.77;7.67;;;;;;;;;;5073460;28;20287;-76
2022/07/08 05:34:51;;;;;;;7.40;6.70;;;;;;;;;;5079570;28;20206;-76
2022/07/08 05:37:19;;;;;;;8.00;7.17;;;;;;;;;;5079304;28;20332;-76
2022/07/08 05:39:48;;;;;;;7.03;6.40;;;;;;;;;;5078957;28;20207;-76
2022/07/08 05:42:15;;;;;;;6.83;6.10;;;;;;;;;;5078663;28;20202;-76
2022/07/08 05:44:42;;;;;;;6.20;5.60;;;;;;;;;;5079069;28;20232;-76
2022/07/08 05:47:09;;;;;;;5.60;5.00;;;;;;;;;;5079212;28;20285;-76
2022/07/08 05:49:37;;;;;;;6.77;5.20;;;;;;;;;;5078904;28;20681;-76
2022/07/08 05:52:05;;;;;;;7.15;5.07;;;;;;;;;;5078719;28;20238;-77
2022/07/08 05:54:32;;;;;;;5.60;5.10;;;;;;;;;;5079406;28;20238;-76
2022/07/08 05:57:01;;;;;;;5.10;4.60;;;;;;;;;;5078861;28;20230;-77
2022/07/08 05:59:29;;;;;;;4.97;4.47;;;;;;;;;;5078866;28;20235;-77
2022/07/08 06:01:56;;;;;;;6.43;4.80;;;;;;;;;;5079264;28;20248;-77
2022/07/08 06:04:24;;;;;;;5.90;4.63;;;;;;;;;;5078988;28;20619;-77
2022/07/08 06:06:51;;;;;;;5.28;4.32;;;;;;;;;;5079045;28;20234;-77
2022/07/08 06:09:18;;;;;;;6.65;5.03;;;;;;;;;;5078921;28;20223;-77
2022/07/08 06:11:45;;;;;;;4.47;4.07;;;;;;;;;;5078756;28;20276;-77
2022/07/08 06:14:14;;;;;;;5.10;3.95;;;;;;;;;;5079435;28;20285;-77
2022/07/08 06:16:41;;;;;;;5.07;4.22;;;;;;;;;;5078895;28;20688;-77
2022/07/08 06:19:09;;;;;;;4.38;3.88;;;;;;;;;;5078875;28;20260;-77
2022/07/08 06:21:36;;;;;;;5.20;3.90;;;;;;;;;;5078916;28;20203;-77
2022/07/08 06:24:03;;;;;;;5.65;3.83;;;;;;;;;;5078901;28;20205;-77
2022/07/08 06:26:30;;;;;;;5.32;4.43;;;;;;;;;;5078637;28;20290;-77
2022/07/08 06:28:58;;;;;;;4.60;3.88;;;;;;;;;;5078722;28;20313;-77
2022/07/08 06:31:26;;;;;;;4.95;4.05;;;;;;;;;;5079262;28;20304;-77
2022/07/08 06:33:56;;;;;;;4.45;4.00;;;;;;;;;;5078821;28;20234;-77
2022/07/08 06:36:24;;;;;;;6.60;4.80;;;;;;;;;;5078560;28;20662;-77
2022/07/08 06:38:51;;;;;;;6.95;4.60;;;;;;;;;;5078646;28;20194;-77
2022/07/08 06:41:19;;;;;;;6.10;4.05;;;;;;;;;;5079038;28;20203;-78
2022/07/08 06:43:46;;;;;;;6.65;3.95;;;;;;;;;;5077825;28;20290;-77
2022/07/08 06:46:13;;;;;;;5.55;3.35;;;;;;;;;;5075708;28;20254;-77
2022/07/08 06:48:42;;;;;;;3.63;3.10;;;;;;;;;;5075608;28;20574;-77
2022/07/08 06:51:10;;;;;;;3.30;2.97;;;;;;;;;;5075734;28;20307;-78
2022/07/08 06:56:21;;;;;;;3.67;2.40;;;;;;;;;;5013573;28;20197;-77
2022/07/08 06:58:48;;;;;;;4.20;2.63;;;;;;;;;;5013424;28;20240;-77
2022/07/08 07:01:15;;;;;;;3.72;2.20;;;;;;;;;;5013423;28;20236;-77
2022/07/08 07:03:44;;;;;;;5.32;2.33;;;;;;;;;;5013378;28;20288;-78
2022/07/08 07:06:11;;;;;;;4.00;2.00;;;;;;;;;;5013449;28;20190;-78
2022/07/08 07:08:38;;;;;;;3.50;2.25;;;;;;;;;;5013063;28;20311;-78
2022/07/08 07:11:06;;;;;;;3.17;1.88;;;;;;;;;;5013108;28;20255;-77
2022/07/08 07:13:33;;;;;;;2.97;1.80;;;;;;;;;;5013038;28;20239;-77
2022/07/08 07:16:00;;;;;;;4.03;1.75;;;;;;;;;;5012953;28;20284;-78
2022/07/08 07:18:27;;;;;;;2.47;1.75;;;;;;;;;;5013135;28;20588;-78
2022/07/08 07:20:56;;;;;;;3.03;1.75;;;;;;;;;;5012980;28;20205;-77
2022/07/08 07:23:23;;;;;;;3.28;1.70;;;;;;;;;;5012948;28;20229;-78
2022/07/08 07:25:50;;;;;;;3.67;1.65;;;;;;;;;;5013120;28;20260;-78
2022/07/08 07:28:18;;;;;;;2.78;1.65;;;;;;;;;;5012741;28;20252;-78
2022/07/08 07:30:45;;;;;;;4.97;1.60;;;;;;;;;;5012927;28;20287;-78
2022/07/08 07:33:12;;;;;;;3.20;1.40;;;;;;;;;;5035063;28;20253;-78
2022/07/08 07:35:39;;;;;;;3.03;1.50;;;;;;;;;;5075001;28;20234;-78
2022/07/08 07:38:08;;;;;;;3.42;1.40;;;;;;;;;;5073745;28;20226;-78
2022/07/08 07:40:35;;;;;;;2.80;1.30;;;;;;;;;;5074680;28;20199;-78
2022/07/08 07:43:02;;;;;;;6.32;1.60;;;;;;;;;;5074276;28;20234;-78
2022/07/08 07:45:30;;;;;;;2.25;1.40;;;;;;;;;;5074541;28;20290;-78
2022/07/08 07:47:57;;;;;;;3.17;1.40;;;;;;;;;;5074582;28;20327;-78
2022/07/08 07:50:26;;;;;;;3.15;1.58;;;;;;;;;;5074264;28;20250;-78
2022/07/08 07:52:54;;;;;;;2.83;1.30;;;;;;;;;;5074134;28;20202;-78
2022/07/08 07:55:23;;;;;;;2.03;1.20;;;;;;;;;;5074132;28;20260;-79
2022/07/08 07:57:50;;;;;;;5.55;1.40;;;;;;;;;;5074530;28;20238;-77
2022/07/08 08:00:18;;;;;;;2.15;1.30;;;;;;;;;;5074242;28;20637;-78
2022/07/08 08:02:45;;;;;;;3.42;1.30;;;;;;;;;;5074184;28;20284;-78
2022/07/08 08:05:13;;;;;;;2.83;1.40;;;;;;;;;;5073923;28;20195;-78
2022/07/08 08:07:41;;;;;;;2.30;1.00;;;;;;;;;;5074035;28;20248;-78
2022/07/08 08:10:08;;;;;;;2.38;1.17;;;;;;;;;;5074287;28;20282;-78
2022/07/08 08:12:37;;;;;;;4.05;1.20;;;;;;;;;;5073900;28;20641;-78
2022/07/08 08:15:05;;;;;;;4.72;1.33;;;;;;;;;;5073911;28;20222;-78
2022/07/08 08:17:36;;;;;;;4.47;1.30;;;;;;;;;;5073793;28;20260;-78
2022/07/08 08:20:03;;;;;;;2.75;1.15;;;;;;;;;;5073779;28;20705;-78
2022/07/08 08:22:30;;;;;;;4.10;1.27;;;;;;;;;;5073141;28;20670;-78
2022/07/08 08:24:57;;;;;;;3.25;1.17;;;;;;;;;;5073851;28;20195;-78
2022/07/08 08:27:24;;;;;;;4.30;1.13;;;;;;;;;;5073244;28;20235;-78
2022/07/08 08:29:53;;;;;;;3.25;1.45;;;;;;;;;;5073487;28;20261;-78
2022/07/08 08:32:20;;;;;;;3.08;1.15;;;;;;;;;;5073532;28;20234;-78
2022/07/08 08:34:47;;;;;;;4.22;1.50;;;;;;;;;;5073464;28;20694;-78
2022/07/08 08:37:15;;;;;;;4.90;1.45;;;;;;;;;;5073590;28;20227;-78
2022/07/08 08:39:42;;;;;;;4.25;1.30;;;;;;;;;;5073409;28;20226;-78
2022/07/08 08:42:09;;;;;;;3.33;1.30;;;;;;;;;;5073372;28;20554;-78
2022/07/08 08:44:36;;;;;;;2.35;1.23;;;;;;;;;;5073201;28;20235;-78
2022/07/08 08:47:06;;;;;;;2.90;1.63;;;;;;;;;;5073509;28;20203;-78
2022/07/08 08:49:35;;;;;;;4.60;1.20;;;;;;;;;;5073294;28;20230;-78
2022/07/08 08:52:03;;;;;;;2.42;1.13;;;;;;;;;;5073024;28;20329;-78
2022/07/08 08:54:32;;;;;;;5.00;1.48;;;;;;;;;;5072988;28;20203;-78
2022/07/08 08:57:00;;;;;;;3.47;1.40;;;;;;;;;;5073286;28;20261;-78
2022/07/08 08:59:27;;;;;;;3.53;1.30;;;;;;;;;;5073514;28;20231;-78
2022/07/08 09:01:55;;;;;;;3.72;1.30;;;;;;;;;;5073311;28;20231;-78
2022/07/08 09:04:24;;;;;;;3.97;1.48;;;;;;;;;;5073068;28;20201;-78
2022/07/08 09:06:51;;;;;;;5.53;1.35;;;;;;;;;;5072386;28;20199;-78
2022/07/08 09:09:18;;;;;;;4.43;1.60;;;;;;;;;;5072721;28;20262;-78
2022/07/08 09:11:46;;;;;;;3.08;1.42;;;;;;;;;;5072758;28;20245;-78
2022/07/08 09:14:15;;;;;;;4.10;1.48;;;;;;;;;;5072966;28;20234;-78
2022/07/08 09:16:42;;;;;;;1.98;1.33;;;;;;;;;;5072915;28;20286;-78
2022/07/08 09:19:13;;;;;;;3.03;1.27;;;;;;;;;;5072610;28;20203;-74
2022/07/08 09:21:52;;;;;;;2.47;1.00;;;;;;;;;;5072083;28;20290;-75
2022/07/08 09:24:19;;;;;;;2.33;1.05;;;;;;;;;;5072708;28;20221;-75
2022/07/08 09:26:46;;;;;;;3.05;1.20;;;;;;;;;;5072506;28;20750;-75
2022/07/08 09:29:14;;;;;;;3.35;1.33;;;;;;;;;;5072722;28;20312;-75
2022/07/08 09:31:41;;;;;;;4.05;1.13;;;;;;;;;;5072305;28;20199;-74
2022/07/08 09:34:10;;;;;;;2.00;1.00;;;;;;;;;;5072041;28;20299;-75
2022/07/08 09:36:49;;;;;;;2.65;1.17;;;;;;;;;;5072788;28;20235;-75
2022/07/08 09:39:25;;;;;;;2.55;1.30;;;;;;;;;;5072617;28;20282;-75
2022/07/08 09:41:53;;;;;;;5.07;1.40;;;;;;;;;;5072136;28;20202;-75
2022/07/08 09:44:22;;;;;;;2.53;1.15;;;;;;;;;;5072049;28;20293;-75
2022/07/08 09:46:50;;;;;;;3.42;1.30;;;;;;;;;;5072163;28;20233;-74
2022/07/08 09:49:30;;;;;;;3.55;1.33;;;;;;;;;;5071795;28;20313;-75
2022/07/08 09:51:59;;;;;;;4.10;1.50;;;;;;;;;;5072072;28;20278;-75
2022/07/08 09:54:27;;;;;;;3.78;1.40;;;;;;;;;;5072231;28;20245;-75
2022/07/08 09:57:01;;;;;;;3.72;1.27;;;;;;;;;;5072215;28;20203;-74
2022/07/08 09:59:28;;;;;;;3.67;1.50;;;;;;;;;;5072407;28;20282;-75
2022/07/08 10:01:55;;;;;;;2.90;1.17;;;;;;;;;;5072397;28;20241;-75
2022/07/08 10:04:24;;;;;;;2.28;1.30;;;;;;;;;;5072120;28;20235;-75
2022/07/08 10:06:51;;;;;;;5.32;1.20;;;;;;;;;;5072126;28;20203;-75
2022/07/08 10:09:20;;;;;;;5.30;1.02;;;;;;;;;;5072064;28;20671;-75
2022/07/08 10:11:48;;;;;;;2.08;1.00;;;;;;;;;;5072128;28;20711;-74
2022/07/08 10:14:16;;;;;;;4.30;1.27;;;;;;;;;;5072038;28;20686;-74
2022/07/08 10:16:43;;;;;;;1.58;1.10;;;;;;;;;;5071727;28;20302;-73
2022/07/08 10:19:13;;;;;;;4.80;1.65;;;;;;;;;;5068867;28;20249;-75
2022/07/08 10:21:42;;;;;;;2.30;1.20;;;;;;;;;;5055698;28;20239;-75
2022/07/08 10:24:11;;;;;;;2.33;1.20;;;;;;;;;;5055567;28;20290;-75
2022/07/08 10:26:41;;;;;;;3.67;1.30;;;;;;;;;;5055542;28;20235;-75
2022/07/08 10:29:09;;;;;;;1.88;1.10;;;;;;;;;;5055682;28;20220;-75
2022/07/08 10:31:43;;;;;;;2.20;1.00;;;;;;;;;;5055407;28;20235;-75
2022/07/08 10:34:10;;;;;;;2.38;0.98;;;;;;;;;;5055560;28;20204;-74
2022/07/08 10:36:46;;;;;;;3.30;1.20;;;;;;;;;;5069848;28;20235;-75
2022/07/08 10:39:14;;;;;;;3.53;1.48;;;;;;;;;;5062937;28;20198;-75
2022/07/08 10:41:56;;;;;;;3.60;1.10;;;;;;;;;;5065833;28;20226;-76
2022/07/08 10:44:38;;;;;;;2.83;1.25;;;;;;;;;;5070170;28;20210;-76
2022/07/08 10:47:09;;;;;;;1.95;1.23;;;;;;;;;;5070472;28;20263;-75
2022/07/08 10:49:41;;;;;;;2.42;1.30;;;;;;;;;;5070100;28;20314;-75
2022/07/08 10:52:08;;;;;;;2.45;1.10;;;;;;;;;;5071873;28;20239;-75
2022/07/08 10:54:37;;;;;;;1.58;1.00;;;;;;;;;;5071263;28;20293;-75
2022/07/08 10:57:10;;;;;;;3.70;1.10;;;;;;;;;;5069407;28;20687;-76
2022/07/08 10:59:37;;;;;;;4.88;1.45;;;;;;;;;;5071933;28;20195;-76
2022/07/08 11:02:07;;;;;;;1.85;1.10;;;;;;;;;;5071973;28;20704;-76
2022/07/08 11:04:45;;;;;;;2.83;1.10;;;;;;;;;;5072425;28;20257;-75
2022/07/08 11:07:36;;;;;;;3.42;1.23;;;;;;;;;;5064220;28;20298;-75
2022/07/08 11:10:07;;;;;;;2.05;1.10;;;;;;;;;;5051975;28;20671;-75
2022/07/08 11:12:37;;;;;;;1.92;1.30;;;;;;;;;;5069256;28;20203;-75
2022/07/08 11:15:06;;;;;;;5.68;1.30;;;;;;;;;;5069274;28;20250;-76
2022/07/08 11:17:34;;;;;;;1.30;1.00;;;;;;;;;;5069424;28;20709;-75
2022/07/08 11:20:02;;;;;;;3.25;1.25;;;;;;;;;;5070771;28;20282;-76
2022/07/08 11:22:33;;;;;;;2.88;1.30;;;;;;;;;;5071825;28;20198;-75
2022/07/08 11:25:01;;;;;;;4.03;1.20;;;;;;;;;;5070958;28;20207;-75
2022/07/08 11:27:28;;;;;;;5.35;1.40;;;;;;;;;;5072119;28;20721;-75
2022/07/08 11:29:57;;;;;;;3.20;1.52;;;;;;;;;;5070233;28;20227;-75
2022/07/08 11:32:25;;;;;;;1.38;1.00;;;;;;;;;;5072367;28;20718;-75
2022/07/08 11:34:53;;;;;;;2.08;1.20;;;;;;;;;;5067804;28;20226;-75
2022/07/08 11:37:20;;;;;;;2.38;1.25;;;;;;;;;;5070564;28;20235;-75
2022/07/08 11:39:48;;;;;;;3.83;1.40;;;;;;;;;;5067507;28;20226;-75
2022/07/08 11:42:15;;;;;;;2.42;1.30;;;;;;;;;;5072697;28;20247;-75
2022/07/08 11:44:43;;;;;;;2.70;1.42;;;;;;;;;;5071428;28;20238;-75
2022/07/08 11:47:15;;;;;;;2.38;1.23;;;;;;;;;;5070089;28;20293;-75
2022/07/08 11:49:43;;;;;;;3.92;1.40;;;;;;;;;;5070504;28;20215;-75
2022/07/08 11:52:11;;;;;;;2.35;1.10;;;;;;;;;;5070380;28;20266;-75
2022/07/08 11:54:38;;;;;;;1.60;1.10;;;;;;;;;;5070642;28;20290;-75
2022/07/08 11:57:06;;;;;;;3.25;1.30;;;;;;;;;;5070704;28;20309;-76
2022/07/08 11:59:34;;;;;;;4.43;1.30;;;;;;;;;;5069115;28;20249;-75
2022/07/08 12:02:02;;;;;;;2.55;1.10;;;;;;;;;;5072155;28;20226;-76
2022/07/08 12:04:31;;;;;;;1.63;1.30;;;;;;;;;;5072018;28;20286;-75
2022/07/08 12:07:00;;;;;;;2.00;1.30;;;;;;;;;;5071168;28;20230;-75
2022/07/08 12:09:29;;;;;;;1.90;1.10;;;;;;;;;;5068735;28;20258;-75
2022/07/08 12:11:57;;;;;;;2.95;1.20;;;;;;;;;;5062494;28;20282;-76
2022/07/08 12:14:25;;;;;;;2.58;1.20;;;;;;;;;;5069852;28;20229;-75
2022/07/08 12:16:53;;;;;;;4.47;1.38;;;;;;;;;;5073444;28;20679;-76
2022/07/08 12:19:27;;;;;;;4.10;1.33;;;;;;;;;;5066035;28;20291;-75
2022/07/08 12:21:55;;;;;;;3.97;1.48;;;;;;;;;;5077255;28;20277;-75
2022/07/08 12:24:26;;;;;;;4.90;1.52;;;;;;;;;;5064251;28;20231;-75
2022/07/08 12:26:54;;;;;;;2.17;1.13;;;;;;;;;;5065690;28;20204;-75
2022/07/08 12:29:21;;;;;;;2.25;1.30;;;;;;;;;;5064300;28;20211;-76
2022/07/08 12:31:49;;;;;;;1.73;1.40;;;;;;;;;;5065895;28;20298;-76
2022/07/08 12:34:17;;;;;;;6.85;1.67;;;;;;;;;;5048418;28;20702;-75
2022/07/08 12:36:44;;;;;;;2.78;1.40;;;;;;;;;;5063218;28;20294;-75
2022/07/08 12:39:13;;;;;;;2.03;1.30;;;;;;;;;;5072606;28;20272;-75
2022/07/08 12:41:41;;;;;;;3.20;1.30;;;;;;;;;;5070972;28;20266;-75
2022/07/08 12:44:26;;;;;;;3.40;1.50;;;;;;;;;;5066484;28;20771;-75
2022/07/08 12:46:53;;;;;;;3.42;1.27;;;;;;;;;;5061664;28;20289;-75
2022/07/08 12:49:23;;;;;;;2.20;1.30;;;;;;;;;;5069002;28;20238;-75
2022/07/08 12:51:51;;;;;;;2.22;1.40;;;;;;;;;;5069186;28;20272;-75
2022/07/08 12:54:19;;;;;;;2.58;1.60;;;;;;;;;;5070029;28;20191;-76
2022/07/08 12:56:47;;;;;;;2.97;1.60;;;;;;;;;;5057481;28;20227;-75
2022/07/08 12:59:14;;;;;;;7.78;1.80;;;;;;;;;;5065826;28;20199;-76
2022/07/08 13:01:42;;;;;;;4.13;1.42;;;;;;;;;;5065170;28;20289;-75
2022/07/08 13:04:09;;;;;;;1.38;1.15;;;;;;;;;;5060473;28;20634;-75
2022/07/08 13:06:36;;;;;;;2.47;1.20;;;;;;;;;;5069836;28;20502;-75
2022/07/08 13:09:04;;;;;;;3.17;1.40;;;;;;;;;;5067526;28;20231;-75
2022/07/08 13:11:32;;;;;;;3.60;1.52;;;;;;;;;;5069190;28;20678;-76
2022/07/08 13:14:00;;;;;;;2.45;1.40;;;;;;;;;;5071334;28;20234;-75
2022/07/08 13:16:27;;;;;;;5.88;1.80;;;;;;;;;;5071012;28;20242;-76
2022/07/08 13:18:54;;;;;;;1.52;1.30;;;;;;;;;;5071293;28;20240;-75
2022/07/08 13:21:21;;;;;;;2.35;1.30;;;;;;;;;;5070603;28;20294;-75
2022/07/08 13:23:48;;;;;;;2.10;1.40;;;;;;;;;;5068761;28;20738;-76
2022/07/08 13:26:16;;;;;;;1.92;1.48;;;;;;;;;;5070672;28;20242;-75
2022/07/08 13:28:44;;;;;;;1.30;1.20;;;;;;;;;;5071099;28;20288;-76
2022/07/08 13:31:12;;;;;;;1.60;1.15;;;;;;;;;;5070272;28;20293;-75
2022/07/08 13:33:39;;;;;;;2.63;1.40;;;;;;;;;;5069649;28;20286;-75
2022/07/08 13:36:06;;;;;;;1.73;1.38;;;;;;;;;;5068791;28;20202;-75
2022/07/08 13:38:34;;;;;;;1.20;1.08;;;;;;;;;;5067565;28;20641;-76
2022/07/08 13:41:01;;;;;;;2.00;1.40;;;;;;;;;;5067653;28;20245;-76
2022/07/08 13:43:28;;;;;;;1.85;1.20;;;;;;;;;;5062350;28;20257;-75
2022/07/08 13:45:56;;;;;;;1.42;1.25;;;;;;;;;;5070862;28;20218;-75
2022/07/08 13:48:24;;;;;;;1.55;1.40;;;;;;;;;;5071142;28;20203;-75
2022/07/08 13:50:51;;;;;;;1.67;1.30;;;;;;;;;;5070492;28;20310;-76
2022/07/08 13:53:18;;;;;;;3.05;1.50;;;;;;;;;;5070337;28;20223;-75
2022/07/08 13:55:45;;;;;;;1.70;1.17;;;;;;;;;;5074425;28;20281;-75
2022/07/08 13:58:12;;;;;;;1.45;1.25;;;;;;;;;;5071508;28;20682;-75
2022/07/08 14:00:40;;;;;;;3.70;1.45;;;;;;;;;;5071970;28;20790;-75
2022/07/08 14:03:09;;;;;;;1.95;1.40;;;;;;;;;;5077404;28;20321;-75
2022/07/08 14:05:36;;;;;;;2.05;1.38;;;;;;;;;;5074318;28;20282;-75
2022/07/08 14:08:03;;;;;;;3.13;1.40;;;;;;;;;;5074216;28;20230;-75
2022/07/08 14:10:30;;;;;;;1.85;1.40;;;;;;;;;;5063892;28;20219;-75
2022/07/08 14:12:57;;;;;;;1.63;1.30;;;;;;;;;;5076910;28;20647;-75
2022/07/08 14:15:25;;;;;;;1.58;1.33;;;;;;;;;;5069720;28;20238;-76
2022/07/08 14:17:52;;;;;;;3.30;1.25;;;;;;;;;;5074214;28;20286;-75
2022/07/08 14:20:20;;;;;;;5.18;1.70;;;;;;;;;;5074449;28;20293;-76
2022/07/08 14:22:48;;;;;;;4.35;2.20;;;;;;;;;;5074313;28;20700;-75
2022/07/08 14:25:17;;;;;;;4.25;1.90;;;;;;;;;;5073556;28;20203;-75
2022/07/08 14:27:44;;;;;;;4.07;1.60;;;;;;;;;;5072237;28;20291;-75
2022/07/08 14:30:12;;;;;;;2.28;1.42;;;;;;;;;;5084836;28;20314;-75
2022/07/08 14:32:39;;;;;;;3.97;1.40;;;;;;;;;;5069467;28;20288;-75
2022/07/08 14:35:06;;;;;;;2.95;1.67;;;;;;;;;;5074727;28;20290;-75
2022/07/08 14:37:35;;;;;;;3.42;1.40;;;;;;;;;;5074757;28;20286;-74
2022/07/08 14:40:02;;;;;;;3.97;1.77;;;;;;;;;;5075198;28;20285;-75
2022/07/08 14:42:30;;;;;;;2.72;1.70;;;;;;;;;;5075234;28;20203;-75
2022/07/08 14:44:57;;;;;;;2.30;2.08;;;;;;;;;;5075329;28;20205;-75
2022/07/08 14:47:25;;;;;;;2.08;1.70;;;;;;;;;;5075213;28;20295;-75
2022/07/08 14:49:52;;;;;;;2.00;1.70;;;;;;;;;;5074731;28;20646;-76
2022/07/08 14:52:19;;;;;;;2.45;1.40;;;;;;;;;;5074292;28;20269;-75